Terminal Aerodrome Forecast
Issued by NWS

Home | Current Version | Previous Version | Text Only | Print | Product List | Glossary On
Versions: 1 2 3 4 5 6 7 8 9 10 11 12 13 14 15 16 17
000
FTUS44 KLIX 221700
TAFGPT
TAF
KGPT 221727Z 2218/2318 16008KT P6SM BKN015
     FM230300 19008KT P6SM BKN008
      TEMPO 2310/2313 5SM BR BKN003
     FM231300 19005KT P6SM VCTS OVC015CB
     FM231700 16009KT 3SM +SHRA VCTS OVC025CB=

USA.gov is the U.S. government's official web portal to all federal, state and local government web resources and services.